createdAt,value
2022-12-11T00:01:29.495Z,95984.13
2022-12-11T00:03:56.060Z,95984.25
2022-12-11T00:06:23.651Z,95992.16
2022-12-11T00:08:54.461Z,95993.94
2022-12-11T00:11:22.482Z,95987.81
2022-12-11T00:13:49.136Z,95987.13
2022-12-11T00:16:15.884Z,95984.25
2022-12-11T00:18:42.544Z,95977.81
2022-12-11T00:21:14.781Z,95975.22
2022-12-11T00:23:41.999Z,95989.44
2022-12-11T00:26:11.774Z,95989.25
2022-12-11T00:28:38.519Z,95992.78
2022-12-11T00:31:07.574Z,95985.28
2022-12-11T00:33:34.525Z,95999.06
2022-12-11T00:36:01.200Z,95988.63
2022-12-11T00:38:28.190Z,96000.78
2022-12-11T00:40:59.180Z,96001.56
2022-12-11T00:43:25.774Z,95996.53
2022-12-11T00:45:52.447Z,96008.06
2022-12-11T00:48:19.089Z,96002.66
2022-12-11T00:50:46.401Z,96005.63
2022-12-11T00:53:13.047Z,96012.28
2022-12-11T00:55:41.230Z,96008.69
2022-12-11T00:58:08.579Z,96004.94
2022-12-11T01:00:35.680Z,96006.53
2022-12-11T01:03:02.736Z,96006.84
2022-12-11T01:05:29.375Z,96013.63
2022-12-11T01:07:56.035Z,96008.97
2022-12-11T01:10:25.965Z,96016.38
2022-12-11T01:12:59.008Z,96024.16
2022-12-11T01:15:29.093Z,96019.25
2022-12-11T01:17:56.111Z,96026.16
2022-12-11T01:20:24.409Z,96028.28
2022-12-11T01:22:56.153Z,96042.94
2022-12-11T01:25:23.185Z,96047.19
2022-12-11T01:27:54.428Z,96054.63
2022-12-11T01:30:23.350Z,96058.94
2022-12-11T01:32:50.015Z,96056.41
2022-12-11T01:35:17.660Z,96049.84
2022-12-11T01:37:44.910Z,96044.09
2022-12-11T01:40:18.236Z,96053.63
2022-12-11T01:42:44.870Z,96060.03
2022-12-11T01:45:39.468Z,96061.13
2022-12-11T01:48:09.626Z,96064.75
2022-12-11T01:50:41.154Z,96055.78
2022-12-11T01:53:12.208Z,96060.53
2022-12-11T01:55:39.967Z,96063.72
2022-12-11T01:58:08.454Z,96066.03
2022-12-11T02:00:35.463Z,96067.34
2022-12-11T02:03:02.070Z,96077.66
2022-12-11T02:05:28.731Z,96079.56
2022-12-11T02:07:58.944Z,96086.03
2022-12-11T02:10:39.020Z,96077.66
2022-12-11T02:13:16.697Z,96069.34
2022-12-11T02:15:53.696Z,96078.19
2022-12-11T02:18:30.438Z,96076.72
2022-12-11T02:21:02.680Z,96070.16
2022-12-11T02:23:51.467Z,96070.41
2022-12-11T02:26:21.218Z,96073.28
2022-12-11T02:28:58.185Z,96066.53
2022-12-11T02:31:32.835Z,96073.38
2022-12-11T02:34:23.549Z,96064.19
2022-12-11T02:36:57.136Z,96081.16
2022-12-11T02:39:26.996Z,96064.13
2022-12-11T02:41:55.899Z,96070.19
2022-12-11T02:44:27.087Z,96061.00
2022-12-11T02:46:54.797Z,96060.94
2022-12-11T02:49:22.965Z,96062.69
2022-12-11T02:51:52.523Z,96066.16
2022-12-11T02:54:25.765Z,96060.13
2022-12-11T02:57:01.696Z,96065.56
2022-12-11T02:59:36.931Z,96063.91
2022-12-11T03:02:04.737Z,96071.84
2022-12-11T03:04:33.637Z,96073.47
2022-12-11T03:07:12.207Z,96069.69
2022-12-11T03:09:43.617Z,96066.47
2022-12-11T03:12:12.702Z,96066.31
2022-12-11T03:14:41.536Z,96068.84
2022-12-11T03:17:17.009Z,96070.69
2022-12-11T03:19:55.578Z,96073.56
2022-12-11T03:22:35.746Z,96063.66
2022-12-11T03:25:15.547Z,96066.78
2022-12-11T03:27:56.512Z,96064.94
2022-12-11T03:30:24.876Z,96069.91
2022-12-11T03:33:05.476Z,96073.22
2022-12-11T03:35:40.353Z,96065.63
2022-12-11T03:38:13.821Z,96065.19
2022-12-11T03:40:44.384Z,96054.81
2022-12-11T03:43:11.462Z,96046.25
2022-12-11T03:45:40.334Z,96049.78
2022-12-11T03:48:09.861Z,96058.88
2022-12-11T03:50:37.491Z,96064.44
2022-12-11T03:53:05.353Z,96052.41
2022-12-11T03:55:33.379Z,96057.81
2022-12-11T03:58:00.200Z,96050.50
2022-12-11T04:00:27.017Z,96052.69
2022-12-11T04:03:13.928Z,96048.00
2022-12-11T04:05:43.702Z,96050.09
2022-12-11T04:08:11.066Z,96039.72
2022-12-11T04:10:38.137Z,96048.44
2022-12-11T04:13:04.825Z,96052.25
2022-12-11T04:15:31.451Z,96051.22
2022-12-11T04:18:16.665Z,96050.09
2022-12-11T04:21:01.947Z,96054.16
2022-12-11T04:23:47.319Z,96053.38
2022-12-11T04:26:20.096Z,96049.66
2022-12-11T04:28:49.779Z,96048.06
2022-12-11T04:31:19.071Z,96050.91
2022-12-11T04:33:46.408Z,96045.41
2022-12-11T04:36:14.136Z,96054.16
2022-12-11T04:38:41.079Z,96052.50
2022-12-11T04:41:12.510Z,96054.53
2022-12-11T04:43:40.173Z,96053.75
2022-12-11T04:46:13.373Z,96048.25
2022-12-11T04:48:40.517Z,96042.16
2022-12-11T04:51:08.055Z,96052.34
2022-12-11T04:53:35.681Z,96052.97
2022-12-11T04:56:05.645Z,96044.50
2022-12-11T04:58:32.222Z,96040.13
2022-12-11T05:00:58.836Z,96041.03
2022-12-11T05:03:25.415Z,96045.66
2022-12-11T05:05:53.594Z,96049.06
2022-12-11T05:08:21.604Z,96055.44
2022-12-11T05:11:02.653Z,96069.31
2022-12-11T05:13:30.191Z,96065.75
2022-12-11T05:15:57.124Z,96057.94
2022-12-11T05:18:24.421Z,96058.19
2022-12-11T05:21:03.749Z,96055.13
2022-12-11T05:23:31.365Z,96069.00
2022-12-11T05:26:00.423Z,96062.63
2022-12-11T05:28:28.769Z,96070.41
2022-12-11T05:31:00.462Z,96064.75
2022-12-11T05:33:27.657Z,96068.69
2022-12-11T05:35:54.270Z,96069.28
2022-12-11T05:38:22.592Z,96077.72
2022-12-11T05:41:03.226Z,96078.41
2022-12-11T05:43:33.391Z,96082.78
2022-12-11T05:46:08.212Z,96086.78
2022-12-11T05:48:35.166Z,96102.06
2022-12-11T05:51:03.156Z,96106.25
2022-12-11T05:53:30.811Z,96097.47
2022-12-11T05:56:10.153Z,96100.00
2022-12-11T05:58:37.151Z,96104.34
2022-12-11T06:01:13.411Z,96112.06
2022-12-11T06:03:40.243Z,96100.88
2022-12-11T06:06:07.985Z,96107.78
2022-12-11T06:08:35.168Z,96108.28
2022-12-11T06:11:03.283Z,96112.78
2022-12-11T06:13:30.352Z,96117.66
2022-12-11T06:16:02.715Z,96123.03
2022-12-11T06:18:29.782Z,96116.56
2022-12-11T06:20:56.478Z,96124.28
2022-12-11T06:23:23.346Z,96129.22
2022-12-11T06:25:49.913Z,96144.97
2022-12-11T06:28:16.582Z,96142.34
2022-12-11T06:30:43.342Z,96145.25
2022-12-11T06:33:09.935Z,96151.13
2022-12-11T06:35:42.090Z,96150.50
2022-12-11T06:38:10.796Z,96151.06
2022-12-11T06:40:38.179Z,96159.31
2022-12-11T06:43:04.813Z,96159.75
2022-12-11T06:45:31.401Z,96164.53
2022-12-11T06:47:58.627Z,96166.50
2022-12-11T06:50:25.224Z,96159.91
2022-12-11T06:52:52.019Z,96167.91
2022-12-11T06:55:18.600Z,96161.19
2022-12-11T06:57:45.283Z,96158.72
2022-12-11T07:00:12.418Z,96155.63
2022-12-11T07:02:39.073Z,96166.00
2022-12-11T07:05:06.196Z,96168.50
2022-12-11T07:07:33.311Z,96164.72
2022-12-11T07:10:07.339Z,96167.69
2022-12-11T07:12:34.773Z,96169.69
2022-12-11T07:15:01.362Z,96175.75
2022-12-11T07:17:29.183Z,96172.19
2022-12-11T07:19:56.034Z,96172.00
2022-12-11T07:22:22.889Z,96176.75
2022-12-11T07:24:49.474Z,96190.13
2022-12-11T07:27:16.109Z,96189.19
2022-12-11T07:29:42.685Z,96190.84
2022-12-11T07:32:09.366Z,96198.81
2022-12-11T07:34:36.320Z,96204.53
2022-12-11T07:37:03.029Z,96194.31
2022-12-11T07:39:29.602Z,96200.63
2022-12-11T07:41:56.172Z,96202.44
2022-12-11T07:44:23.327Z,96195.00
2022-12-11T07:46:50.018Z,96205.81
2022-12-11T07:49:16.765Z,96199.84
2022-12-11T07:51:43.593Z,96197.94
2022-12-11T07:54:16.614Z,96203.16
2022-12-11T07:56:45.621Z,96209.44
2022-12-11T07:59:14.618Z,96208.38
2022-12-11T08:01:42.153Z,96205.94
2022-12-11T08:04:11.434Z,96206.88
2022-12-11T08:06:40.196Z,96210.03
2022-12-11T08:09:09.519Z,96207.00
2022-12-11T08:11:36.543Z,96214.88
2022-12-11T08:14:03.245Z,96209.25
2022-12-11T08:16:29.928Z,96216.69
2022-12-11T08:18:56.552Z,96218.31
2022-12-11T08:21:25.642Z,96219.59
2022-12-11T08:23:53.378Z,96214.50
2022-12-11T08:26:23.389Z,96215.91
2022-12-11T08:28:51.197Z,96210.34
2022-12-11T08:31:18.988Z,96211.84
2022-12-11T08:33:47.037Z,96222.69
2022-12-11T08:36:16.864Z,96221.72
2022-12-11T08:38:43.586Z,96222.69
2022-12-11T08:41:18.466Z,96217.09
2022-12-11T08:43:45.304Z,96232.69
2022-12-11T08:46:12.771Z,96221.72
2022-12-11T08:48:41.597Z,96231.72
2022-12-11T08:51:12.672Z,96231.31
2022-12-11T08:53:39.633Z,96238.72
2022-12-11T08:56:18.064Z,96229.81
2022-12-11T08:58:46.601Z,96218.72
2022-12-11T09:01:24.748Z,96227.34
2022-12-11T09:03:52.921Z,96225.84
2022-12-11T09:06:21.780Z,96220.66
2022-12-11T09:08:52.963Z,96217.34
2022-12-11T09:11:23.627Z,96207.16
2022-12-11T09:13:50.887Z,96203.97
2022-12-11T09:16:19.682Z,96216.16
2022-12-11T09:18:47.905Z,96216.13
2022-12-11T09:21:16.995Z,96220.56
2022-12-11T09:23:44.522Z,96235.44
2022-12-11T09:26:14.728Z,96227.13
2022-12-11T09:28:46.161Z,96221.91
2022-12-11T09:31:19.110Z,96225.44
2022-12-11T09:33:46.416Z,96224.59
2022-12-11T09:36:13.022Z,96228.44
2022-12-11T09:38:39.984Z,96227.50
2022-12-11T09:41:24.122Z,96219.50
2022-12-11T09:44:06.706Z,96228.75
2022-12-11T09:46:36.016Z,96236.72
2022-12-11T09:49:04.853Z,96226.94
2022-12-11T09:51:42.768Z,96231.34
2022-12-11T09:54:13.574Z,96226.94
2022-12-11T09:57:08.268Z,96230.97
2022-12-11T09:59:46.755Z,96234.00
2022-12-11T10:02:22.217Z,96232.94
2022-12-11T10:05:28.920Z,96231.38
2022-12-11T10:08:13.738Z,96230.78
2022-12-11T10:10:51.645Z,96221.50
2022-12-11T10:13:39.617Z,96224.53
2022-12-11T10:16:24.232Z,96227.81
2022-12-11T10:18:51.459Z,96229.94
2022-12-11T10:21:19.768Z,96221.53
2022-12-11T10:23:54.440Z,96221.97
2022-12-11T10:26:23.038Z,96225.28
2022-12-11T10:28:50.240Z,96221.72
2022-12-11T10:31:18.770Z,96227.19
2022-12-11T10:34:04.488Z,96223.91
2022-12-11T10:36:35.380Z,96225.84
2022-12-11T10:39:03.011Z,96227.22
2022-12-11T10:41:39.728Z,96230.22
2022-12-11T10:44:32.358Z,96220.47
2022-12-11T10:47:06.410Z,96220.50
2022-12-11T10:49:36.090Z,96219.38
2022-12-11T10:52:10.980Z,96233.28
2022-12-11T10:54:40.916Z,96245.63
2022-12-11T10:57:10.132Z,96252.72
2022-12-11T10:59:39.424Z,96237.00
2022-12-11T11:02:18.689Z,96242.09
2022-12-11T11:04:45.528Z,96231.88
2022-12-11T11:07:24.101Z,96222.31
2022-12-11T11:10:03.017Z,96214.00
2022-12-11T11:12:29.577Z,96218.00
2022-12-11T11:15:01.683Z,96210.16
2022-12-11T11:17:33.807Z,96221.03
2022-12-11T11:20:12.099Z,96212.84
2022-12-11T11:22:44.777Z,96206.75
2022-12-11T11:25:49.112Z,96212.84
2022-12-11T11:28:21.528Z,96210.97
2022-12-11T11:30:59.853Z,96197.13
2022-12-11T11:33:27.661Z,96201.31
2022-12-11T11:36:02.378Z,96208.25
2022-12-11T11:38:34.799Z,96218.75
2022-12-11T11:41:18.868Z,96213.28
2022-12-11T11:43:50.699Z,96210.81
2022-12-11T11:46:26.250Z,96209.97
2022-12-11T11:49:23.695Z,96203.28
2022-12-11T11:52:39.038Z,96208.25
2022-12-11T11:55:17.292Z,96205.66
2022-12-11T11:58:11.271Z,96203.88
2022-12-11T12:00:38.132Z,96199.75
2022-12-11T12:03:14.126Z,96194.66
2022-12-11T12:06:17.198Z,96196.94
2022-12-11T12:09:11.310Z,96201.56
2022-12-11T12:11:49.677Z,96191.72
2022-12-11T12:17:55.410Z,96185.19
2022-12-11T12:20:47.247Z,96197.84
2022-12-11T12:23:19.631Z,96199.81
2022-12-11T12:25:46.150Z,96194.34
2022-12-11T12:28:31.134Z,96198.16
2022-12-11T12:31:06.727Z,96192.16
2022-12-11T12:34:06.308Z,96195.19
2022-12-11T12:36:38.578Z,96193.09
2022-12-11T12:39:16.921Z,96191.03
2022-12-11T12:41:56.479Z,96201.19
2022-12-11T12:44:24.608Z,96190.91
2022-12-11T12:46:59.409Z,96196.78
2022-12-11T12:49:34.642Z,96187.19
2022-12-11T12:52:03.153Z,96196.91
2022-12-11T12:54:32.322Z,96186.63
2022-12-11T12:57:02.747Z,96186.41
2022-12-11T12:59:29.459Z,96192.94
2022-12-11T13:02:03.145Z,96196.00
2022-12-11T13:04:59.426Z,96198.72
2022-12-11T13:07:30.329Z,96201.88
2022-12-11T13:10:01.836Z,96195.41
2022-12-11T13:12:34.810Z,96204.44
2022-12-11T13:15:02.212Z,96205.00
2022-12-11T13:17:37.633Z,96207.72
2022-12-11T13:20:32.202Z,96211.13
2022-12-11T13:23:07.635Z,96215.22
2022-12-11T13:25:51.417Z,96221.06
2022-12-11T13:28:39.883Z,96228.69
2022-12-11T13:31:15.714Z,96233.81
2022-12-11T13:33:47.106Z,96231.56
2022-12-11T13:36:18.945Z,96241.69
2022-12-11T13:38:53.898Z,96241.13
2022-12-11T13:41:20.842Z,96240.56
2022-12-11T13:43:49.752Z,96249.56
2022-12-11T13:46:24.043Z,96253.13
2022-12-11T13:48:57.074Z,96266.16
2022-12-11T13:51:24.836Z,96268.56
2022-12-11T13:54:16.699Z,96261.97
2022-12-11T13:57:02.642Z,96270.38
2022-12-11T13:59:35.833Z,96283.41
2022-12-11T14:02:24.005Z,96281.38
2022-12-11T14:04:55.802Z,96285.03
2022-12-11T14:07:29.743Z,96278.06
2022-12-11T14:10:08.064Z,96285.34
2022-12-11T14:12:36.507Z,96299.59
2022-12-11T14:15:04.816Z,96303.63
2022-12-11T14:17:34.419Z,96302.09
2022-12-11T14:20:07.239Z,96320.06
2022-12-11T14:22:34.193Z,96313.69
2022-12-11T14:25:05.585Z,96316.31
2022-12-11T14:27:32.202Z,96333.50
2022-12-11T14:30:10.870Z,96341.75
2022-12-11T14:32:44.597Z,96336.06
2022-12-11T14:35:18.444Z,96345.16
2022-12-11T14:37:45.413Z,96345.97
2022-12-11T14:40:20.444Z,96353.88
2022-12-11T14:42:57.032Z,96349.88
2022-12-11T14:45:34.612Z,96354.38
2022-12-11T14:48:09.608Z,96359.41
2022-12-11T14:50:50.162Z,96365.88
2022-12-11T14:53:25.761Z,96366.81
2022-12-11T14:55:53.360Z,96368.09
2022-12-11T14:58:23.133Z,96371.16
2022-12-11T15:01:20.037Z,96378.94
2022-12-11T15:03:47.163Z,96384.09
2022-12-11T15:06:29.068Z,96393.28
2022-12-11T15:08:55.993Z,96391.28
2022-12-11T15:11:25.155Z,96400.44
2022-12-11T15:14:00.588Z,96396.31
2022-12-11T15:16:32.882Z,96397.94
2022-12-11T15:19:00.428Z,96392.59
2022-12-11T15:21:32.734Z,96405.63
2022-12-11T15:24:02.570Z,96401.38
2022-12-11T15:26:36.281Z,96404.53
2022-12-11T15:29:06.805Z,96413.34
2022-12-11T15:31:35.164Z,96407.81
2022-12-11T15:34:02.410Z,96413.25
2022-12-11T15:36:35.829Z,96413.25
2022-12-11T15:39:05.751Z,96423.84
2022-12-11T15:41:34.691Z,96424.75
2022-12-11T15:44:04.032Z,96425.31
2022-12-11T15:46:35.864Z,96430.38
2022-12-11T15:49:05.834Z,96448.66
2022-12-11T15:51:32.383Z,96445.16
2022-12-11T15:53:58.948Z,96443.97
2022-12-11T15:56:25.949Z,96450.44
2022-12-11T15:58:52.565Z,96452.75
2022-12-11T16:01:19.249Z,96463.94
2022-12-11T16:03:46.004Z,96462.22
2022-12-11T16:06:13.448Z,96468.81
2022-12-11T16:08:40.044Z,96462.16
2022-12-11T16:11:06.741Z,96469.69
2022-12-11T16:13:33.294Z,96475.19
2022-12-11T16:15:59.899Z,96475.00
2022-12-11T16:18:26.854Z,96470.97
2022-12-11T16:20:53.429Z,96474.91
2022-12-11T16:23:20.163Z,96465.63
2022-12-11T16:25:47.357Z,96472.25
2022-12-11T16:28:17.053Z,96474.19
2022-12-11T16:30:44.781Z,96473.97
2022-12-11T16:33:13.367Z,96480.00
2022-12-11T16:35:41.705Z,96478.53
2022-12-11T16:38:09.901Z,96480.34
2022-12-11T16:40:37.186Z,96476.31
2022-12-11T16:43:04.974Z,96490.13
2022-12-11T16:45:32.357Z,96480.22
2022-12-11T16:47:58.989Z,96476.69
2022-12-11T16:50:25.986Z,96481.47
2022-12-11T16:52:52.596Z,96483.03
2022-12-11T16:55:22.183Z,96482.41
2022-12-11T16:57:48.863Z,96482.19
2022-12-11T17:00:16.172Z,96477.75
2022-12-11T17:02:42.875Z,96484.75
2022-12-11T17:05:09.783Z,96483.84
2022-12-11T17:07:37.166Z,96485.69
2022-12-11T17:10:04.176Z,96486.31
2022-12-11T17:12:31.057Z,96483.22
2022-12-11T17:14:57.889Z,96485.81
2022-12-11T17:17:25.023Z,96479.81
2022-12-11T17:19:51.774Z,96479.28
2022-12-11T17:22:18.421Z,96485.81
2022-12-11T17:24:45.016Z,96477.13
2022-12-11T17:27:11.605Z,96483.09
2022-12-11T17:29:39.439Z,96480.03
2022-12-11T17:32:06.538Z,96481.69
2022-12-11T17:34:37.909Z,96481.88
2022-12-11T17:37:05.235Z,96482.91
2022-12-11T17:39:31.952Z,96481.97
2022-12-11T17:41:58.589Z,96486.84
2022-12-11T17:44:26.648Z,96489.75
2022-12-11T17:46:53.698Z,96484.84
2022-12-11T17:49:20.395Z,96488.47
2022-12-11T17:51:48.033Z,96492.41
2022-12-11T17:54:15.113Z,96487.97
2022-12-11T17:56:41.842Z,96488.72
2022-12-11T17:59:08.584Z,96484.97
2022-12-11T18:01:35.545Z,96485.63
2022-12-11T18:04:04.294Z,96490.56
2022-12-11T18:06:31.546Z,96485.78
2022-12-11T18:08:58.162Z,96488.50
2022-12-11T18:11:25.293Z,96484.47
2022-12-11T18:13:52.851Z,96480.13
2022-12-11T18:16:29.728Z,96490.75
2022-12-11T18:18:56.562Z,96490.47
2022-12-11T18:21:26.962Z,96487.78
2022-12-11T18:23:54.115Z,96491.59
2022-12-11T18:26:20.843Z,96497.28
2022-12-11T18:28:49.193Z,96492.41
2022-12-11T18:31:16.744Z,96492.41
2022-12-11T18:33:44.583Z,96488.50
2022-12-11T18:36:13.764Z,96485.81
2022-12-11T18:38:42.005Z,96483.72
2022-12-11T18:41:10.975Z,96485.59
2022-12-11T18:43:37.863Z,96489.34
2022-12-11T18:46:06.508Z,96486.13
2022-12-11T18:48:33.184Z,96494.25
2022-12-11T18:50:59.860Z,96485.78
2022-12-11T18:53:26.501Z,96493.09
2022-12-11T18:55:58.597Z,96493.63
2022-12-11T18:58:26.933Z,96496.84
2022-12-11T19:00:53.602Z,96499.09
2022-12-11T19:03:20.282Z,96499.00
2022-12-11T19:05:47.017Z,96504.16
2022-12-11T19:08:14.157Z,96493.41
2022-12-11T19:10:42.977Z,96500.47
2022-12-11T19:13:09.901Z,96503.13
2022-12-11T19:15:43.897Z,96510.44
2022-12-11T19:18:11.532Z,96517.25
2022-12-11T19:20:49.338Z,96505.81
2022-12-11T19:23:17.621Z,96500.25
2022-12-11T19:25:45.886Z,96498.88
2022-12-11T19:28:13.407Z,96493.31
2022-12-11T19:30:48.936Z,96499.47
2022-12-11T19:33:16.542Z,96495.34
2022-12-11T19:35:44.045Z,96488.84
2022-12-11T19:38:12.700Z,96488.47
2022-12-11T19:40:41.493Z,96485.28
2022-12-11T19:43:08.488Z,96492.69
2022-12-11T19:45:35.297Z,96490.84
2022-12-11T19:48:02.163Z,96484.41
2022-12-11T19:50:28.788Z,96483.69
2022-12-11T19:52:55.347Z,96483.06
2022-12-11T19:55:21.924Z,96478.00
2022-12-11T19:57:48.531Z,96482.63
2022-12-11T20:00:15.508Z,96476.81
2022-12-11T20:02:42.112Z,96486.97
2022-12-11T20:05:09.310Z,96485.94
2022-12-11T20:07:36.373Z,96485.13
2022-12-11T20:10:03.092Z,96485.19
2022-12-11T20:12:29.698Z,96486.09
2022-12-11T20:14:56.278Z,96491.72
2022-12-11T20:17:23.045Z,96487.19
2022-12-11T20:19:49.670Z,96482.56
2022-12-11T20:22:16.236Z,96480.94
2022-12-11T20:24:42.818Z,96486.25
2022-12-11T20:27:09.613Z,96486.25
2022-12-11T20:29:37.384Z,96484.94
2022-12-11T20:32:05.000Z,96489.41
2022-12-11T20:34:31.676Z,96493.09
2022-12-11T20:37:00.187Z,96496.06
2022-12-11T20:39:27.087Z,96508.34
2022-12-11T20:41:53.690Z,96507.13
2022-12-11T20:44:20.463Z,96509.44
2022-12-11T20:46:47.256Z,96509.75
2022-12-11T20:49:13.856Z,96509.00
2022-12-11T20:51:41.151Z,96510.84
2022-12-11T20:54:08.246Z,96508.63
2022-12-11T20:56:35.018Z,96513.19
2022-12-11T20:59:01.783Z,96523.59
2022-12-11T21:01:31.239Z,96526.56
2022-12-11T21:03:59.424Z,96519.94
2022-12-11T21:06:34.588Z,96518.44
2022-12-11T21:09:06.370Z,96521.69
2022-12-11T21:11:33.194Z,96522.16
2022-12-11T21:13:59.963Z,96526.75
2022-12-11T21:16:26.814Z,96525.28
2022-12-11T21:18:55.133Z,96527.69
2022-12-11T21:21:22.102Z,96520.31
2022-12-11T21:23:48.838Z,96521.22
2022-12-11T21:26:16.060Z,96531.44
2022-12-11T21:28:43.431Z,96532.56
2022-12-11T21:31:14.955Z,96534.31
2022-12-11T21:33:41.721Z,96535.97
2022-12-11T21:36:11.080Z,96537.28
2022-12-11T21:38:38.130Z,96532.66
2022-12-11T21:41:13.646Z,96540.03
2022-12-11T21:44:14.273Z,96538.16
2022-12-11T21:46:28.966Z,96541.19
2022-12-11T21:48:55.852Z,96539.63
2022-12-11T21:51:34.308Z,96544.16
2022-12-11T21:54:03.573Z,96549.19
2022-12-11T21:56:31.691Z,96546.34
2022-12-11T21:58:58.441Z,96556.78
2022-12-11T22:01:30.590Z,96554.81
2022-12-11T22:03:59.323Z,96561.72
2022-12-11T22:06:26.138Z,96560.53
2022-12-11T22:08:53.175Z,96558.13
2022-12-11T22:11:23.369Z,96567.56
2022-12-11T22:13:50.101Z,96569.09
2022-12-11T22:16:16.846Z,96568.09
2022-12-11T22:18:43.637Z,96569.09
2022-12-11T22:21:10.304Z,96577.38
2022-12-11T22:23:41.146Z,96575.91
2022-12-11T22:26:09.736Z,96574.72
2022-12-11T22:28:36.332Z,96571.69
2022-12-11T22:31:04.477Z,96564.31
2022-12-11T22:33:31.118Z,96556.78
2022-12-11T22:35:59.650Z,96573.00
2022-12-11T22:38:26.745Z,96564.31
2022-12-11T22:40:54.557Z,96565.06
2022-12-11T22:43:21.733Z,96567.81
2022-12-11T22:45:49.414Z,96563.94
2022-12-11T22:48:16.108Z,96562.28
2022-12-11T22:50:43.148Z,96555.34
2022-12-11T22:53:10.134Z,96563.09
2022-12-11T22:55:39.714Z,96562.28
2022-12-11T22:58:06.581Z,96561.00
2022-12-11T23:00:33.504Z,96560.09
2022-12-11T23:03:00.215Z,96560.38
2022-12-11T23:05:26.870Z,96564.78
2022-12-11T23:07:53.518Z,96569.94
2022-12-11T23:10:20.578Z,96559.16
2022-12-11T23:12:47.169Z,96562.84
2022-12-11T23:15:14.275Z,96564.59
2022-12-11T23:17:41.248Z,96570.69
2022-12-11T23:20:08.446Z,96569.66
2022-12-11T23:22:35.104Z,96566.97
2022-12-11T23:25:01.816Z,96569.13
2022-12-11T23:27:29.088Z,96569.56
2022-12-11T23:29:56.094Z,96571.31
2022-12-11T23:32:22.933Z,96575.28
2022-12-11T23:34:49.509Z,96571.84
2022-12-11T23:37:16.090Z,96572.06
2022-12-11T23:39:42.689Z,96571.13
2022-12-11T23:42:09.438Z,96584.22
2022-12-11T23:44:36.215Z,96579.41
2022-12-11T23:47:02.988Z,96577.97
2022-12-11T23:49:30.059Z,96581.19
2022-12-11T23:51:56.631Z,96580.28
2022-12-11T23:54:23.204Z,96589.56
2022-12-11T23:56:49.781Z,96586.59
2022-12-11T23:59:16.641Z,96583.41
